Time;durP1;ratioP1;P1;durP2;ratioP2;P2;SDS_P1;SDS_P2;PMS_P1;PMS_P2;Temp;Humidity;BMP_temperature;BMP_pressure;BME280_temperature;BME280_humidity;BME280_pressure;Samples;Min_cycle;Max_cycle;Signal;HPM_P1;HPM_P2
2023/05/21 00:01:41;;;;;;;10.93;6.60;;;;;;;18.27;66.07;98175.44;5091646;28;20529;-49
2023/05/21 00:04:08;;;;;;;10.73;7.32;;;;;;;18.32;66.36;98178.09;5090279;28;20024;-49
2023/05/21 00:06:37;;;;;;;8.05;6.80;;;;;;;18.31;65.92;98181.00;5091792;28;20142;-49
2023/05/21 00:09:04;;;;;;;10.15;6.68;;;;;;;18.01;66.56;98189.69;5091495;28;20528;-49
2023/05/21 00:11:29;;;;;;;14.05;7.45;;;;;;;17.74;67.69;98186.13;5090289;28;20394;-49
2023/05/21 00:13:55;;;;;;;16.85;7.32;;;;;;;17.58;68.41;98181.81;5090227;28;20161;-49
2023/05/21 00:16:22;;;;;;;12.95;7.30;;;;;;;17.45;69.13;98179.63;5093515;28;20107;-49
2023/05/21 00:18:53;;;;;;;8.98;7.65;;;;;;;17.30;69.86;98175.03;5095433;28;20024;-49
2023/05/21 00:21:24;;;;;;;11.75;7.60;;;;;;;17.18;70.06;98175.22;5093989;28;20519;-49
2023/05/21 00:23:53;;;;;;;13.30;7.57;;;;;;;17.22;70.50;98178.97;5095339;28;20024;-49
2023/05/21 00:26:20;;;;;;;15.30;7.57;;;;;;;17.30;70.75;98175.81;5095191;28;20509;-49
2023/05/21 00:28:46;;;;;;;9.32;6.60;;;;;;;17.50;70.43;98177.00;5076999;28;20032;-49
2023/05/21 00:31:12;;;;;;;30.75;27.45;;;;;;;17.61;69.63;98178.66;5093837;28;20024;-49
2023/05/21 00:33:37;;;;;;;22.58;15.77;;;;;;;17.59;69.41;98170.16;5093840;28;20035;-49
2023/05/21 00:36:04;;;;;;;30.23;19.33;;;;;;;17.53;69.33;98169.31;5093735;28;20201;-49
2023/05/21 00:38:31;;;;;;;20.38;16.52;;;;;;;17.46;69.35;98170.59;5094996;28;20039;-49
2023/05/21 00:41:06;;;;;;;9.05;7.47;;;;;;;17.35;69.80;98164.47;5095206;28;20024;-49
2023/05/21 00:43:32;;;;;;;14.75;7.93;;;;;;;17.30;69.73;98173.16;5093446;28;20410;-50
2023/05/21 00:45:58;;;;;;;16.55;8.65;;;;;;;17.26;69.75;98163.34;5093653;28;20028;-49
2023/05/21 00:48:24;;;;;;;11.77;7.93;;;;;;;17.20;70.13;98162.50;5093464;28;20490;-49
2023/05/21 00:50:51;;;;;;;9.07;7.20;;;;;;;17.08;70.53;98167.19;5076873;28;20375;-49
2023/05/21 00:53:18;;;;;;;13.88;8.10;;;;;;;17.00;71.45;98165.81;5094808;28;20500;-49
2023/05/21 00:55:45;;;;;;;12.20;7.90;;;;;;;17.02;71.37;98162.91;5094765;28;20020;-49
2023/05/21 00:58:10;;;;;;;12.10;8.27;;;;;;;17.04;71.24;98158.16;5094658;28;20060;-49
2023/05/21 01:00:36;;;;;;;10.00;7.97;;;;;;;17.00;71.61;98168.47;5094609;28;20037;-49
2023/05/21 01:03:03;;;;;;;14.88;8.52;;;;;;;17.05;71.41;98157.13;5093293;28;20028;-49
2023/05/21 01:05:29;;;;;;;15.85;7.72;;;;;;;17.09;71.44;98159.00;5094481;28;20031;-49
2023/05/21 01:07:57;;;;;;;15.65;9.05;;;;;;;17.07;71.52;98163.75;5093051;28;20039;-49
2023/05/21 01:10:27;;;;;;;11.82;9.93;;;;;;;16.99;71.40;98161.59;5093085;28;20067;-49
2023/05/21 01:12:56;;;;;;;17.30;11.65;;;;;;;17.04;71.67;98163.47;5094411;28;20028;-49
2023/05/21 01:15:22;;;;;;;13.70;7.93;;;;;;;17.04;71.50;98168.75;5094330;28;20028;-49
2023/05/21 01:17:48;;;;;;;9.77;7.78;;;;;;;16.89;70.95;98167.59;5094540;28;20497;-49
2023/05/21 01:20:19;;;;;;;12.35;9.95;;;;;;;16.78;71.83;98176.50;5094185;28;20028;-49
2023/05/21 01:22:52;;;;;;;13.07;8.07;;;;;;;16.77;72.10;98169.59;5092884;28;20387;-49
2023/05/21 01:25:18;;;;;;;10.90;7.63;;;;;;;16.83;71.92;98179.22;5092397;28;20059;-49
2023/05/21 01:27:43;;;;;;;9.88;7.30;;;;;;;16.86;71.53;98178.72;5093998;28;20093;-49
2023/05/21 01:30:10;;;;;;;12.18;8.75;;;;;;;16.74;71.37;98173.56;5092714;28;20027;-49
2023/05/21 01:32:54;;;;;;;10.27;8.18;;;;;;;16.60;71.92;98179.53;5092688;28;20020;-49
2023/05/21 01:35:38;;;;;;;12.52;8.35;;;;;;;16.46;72.24;98173.84;5092617;28;20031;-49
2023/05/21 01:38:16;;;;;;;13.75;7.93;;;;;;;16.44;72.60;98174.09;5092626;28;20092;-49
2023/05/21 01:40:53;;;;;;;10.13;7.60;;;;;;;16.43;72.79;98167.19;5093887;28;20035;-49
2023/05/21 01:43:19;;;;;;;11.43;8.10;;;;;;;16.52;72.58;98163.06;5092494;28;20020;-49
2023/05/21 01:45:46;;;;;;;9.43;7.28;;;;;;;16.54;72.43;98163.59;5093610;28;20050;-49
2023/05/21 01:48:13;;;;;;;10.70;7.68;;;;;;;16.57;72.30;98168.38;5093608;28;20498;-49
2023/05/21 01:50:40;;;;;;;9.70;7.85;;;;;;;16.64;72.11;98168.19;5092329;28;20546;-49
2023/05/21 01:53:06;;;;;;;18.02;8.00;;;;;;;16.59;72.10;98170.78;5092328;28;20028;-49
2023/05/21 01:55:32;;;;;;;12.50;7.82;;;;;;;16.69;72.22;98165.56;5092170;28;20509;-49
2023/05/21 01:57:58;;;;;;;11.90;7.63;;;;;;;16.74;71.30;98164.81;5092196;28;20024;-49
2023/05/21 02:00:31;;;;;;;16.88;9.20;;;;;;;16.63;71.25;98153.34;5092053;28;20016;-49
2023/05/21 02:02:57;;;;;;;13.48;8.75;;;;;;;16.45;71.65;98162.44;5093421;28;20028;-49
2023/05/21 02:05:23;;;;;;;10.95;7.95;;;;;;;16.44;72.18;98160.03;5093276;28;20031;-49
2023/05/21 02:07:50;;;;;;;12.38;8.05;;;;;;;16.38;72.28;98164.53;5091896;28;20020;-49
2023/05/21 02:10:17;;;;;;;11.85;8.82;;;;;;;16.30;72.10;98167.63;5091875;28;20028;-49
2023/05/21 02:12:42;;;;;;;19.80;9.88;;;;;;;16.34;72.47;98174.00;5091877;28;20114;-49
2023/05/21 02:15:08;;;;;;;14.15;9.40;;;;;;;16.29;72.31;98163.34;5091775;28;20048;-49
2023/05/21 02:17:34;;;;;;;14.77;8.07;;;;;;;16.35;72.80;98170.31;5093129;28;20024;-49
2023/05/21 02:20:09;;;;;;;9.57;7.25;;;;;;;16.51;71.97;98166.75;5093064;28;20024;-49
2023/05/21 02:22:37;;;;;;;26.25;14.60;;;;;;;16.51;71.41;98165.94;5093019;28;20043;-49
2023/05/21 02:25:03;;;;;;;14.07;9.98;;;;;;;16.43;71.27;98161.91;5091585;28;20067;-49
2023/05/21 02:27:31;;;;;;;13.20;9.98;;;;;;;16.11;71.83;98161.84;5092847;28;20028;-48
2023/05/21 02:29:56;;;;;;;12.82;7.75;;;;;;;16.02;73.29;98158.84;5091613;28;20028;-49
2023/05/21 02:32:22;;;;;;;14.35;8.57;;;;;;;16.17;73.48;98164.28;5091458;28;20057;-49
2023/05/21 02:34:48;;;;;;;18.05;8.68;;;;;;;16.42;72.47;98170.91;5091499;28;20030;-49
2023/05/21 02:37:14;;;;;;;13.48;7.95;;;;;;;16.51;71.44;98164.09;5090685;28;20024;-49
2023/05/21 02:39:40;;;;;;;19.25;8.35;;;;;;;16.51;71.27;98166.75;5091326;28;20111;-49
2023/05/21 02:42:06;;;;;;;17.83;8.90;;;;;;;16.56;71.66;98173.94;5092671;28;20077;-49
2023/05/21 02:44:31;;;;;;;19.45;8.52;;;;;;;16.55;70.98;98172.34;5092347;28;20502;-49
2023/05/21 02:46:57;;;;;;;15.98;9.57;;;;;;;16.47;70.78;98178.09;5091221;28;20035;-49
2023/05/21 02:49:22;;;;;;;19.45;8.43;;;;;;;16.33;71.23;98175.84;5091110;28;20028;-49
2023/05/21 02:51:48;;;;;;;11.95;8.65;;;;;;;16.24;71.05;98173.88;5091196;28;20489;-49
2023/05/21 02:54:14;;;;;;;16.58;8.35;;;;;;;16.14;71.77;98175.41;5092480;28;20020;-49
2023/05/21 02:56:42;;;;;;;10.98;8.25;;;;;;;16.28;71.77;98177.63;5091164;28;20054;-49
2023/05/21 02:59:08;;;;;;;18.20;8.88;;;;;;;16.36;71.69;98185.16;5092332;28;20520;-49
2023/05/21 03:01:34;;;;;;;10.02;7.55;;;;;;;16.56;71.44;98187.19;5092337;28;20020;-48
2023/05/21 03:03:59;;;;;;;14.60;8.60;;;;;;;16.76;70.35;98181.25;5090997;28;20020;-49
2023/05/21 03:06:25;;;;;;;11.65;7.53;;;;;;;16.87;69.82;98184.81;5090919;28;20024;-49
2023/05/21 03:08:51;;;;;;;18.08;8.05;;;;;;;16.92;68.99;98177.72;5091119;28;20039;-49
2023/05/21 03:11:21;;;;;;;17.55;8.70;;;;;;;16.71;68.92;98173.28;5092218;28;20031;-49
2023/05/21 03:13:47;;;;;;;14.48;8.82;;;;;;;16.47;69.87;98172.81;5092440;28;20099;-49
2023/05/21 03:16:12;;;;;;;17.23;9.02;;;;;;;16.21;70.27;98177.06;5092088;28;20396;-49
2023/05/21 03:18:38;;;;;;;14.50;8.90;;;;;;;16.00;71.32;98174.19;5090804;28;20051;-49
2023/05/21 03:21:04;;;;;;;10.38;8.60;;;;;;;15.78;71.54;98177.63;5092085;28;20028;-49
2023/05/21 03:23:30;;;;;;;13.48;8.80;;;;;;;15.53;72.72;98170.16;5092107;28;20020;-48
2023/05/21 03:25:56;;;;;;;10.70;8.77;;;;;;;15.37;73.64;98174.47;5090664;28;20035;-49
2023/05/21 03:28:22;;;;;;;17.73;8.85;;;;;;;15.41;74.08;98173.94;5090794;28;20441;-49
2023/05/21 03:30:52;;;;;;;13.32;8.95;;;;;;;15.36;73.80;98185.28;5090646;28;20489;-48
2023/05/21 03:33:18;;;;;;;13.75;9.40;;;;;;;15.16;74.64;98181.28;5090656;28;20028;-49
2023/05/21 03:35:44;;;;;;;15.55;9.40;;;;;;;15.13;75.51;98189.72;5091844;28;20111;-49
2023/05/21 03:38:10;;;;;;;19.52;10.05;;;;;;;15.22;75.49;98186.66;5073745;28;20099;-49
2023/05/21 03:40:35;;;;;;;14.77;9.18;;;;;;;15.42;75.48;98191.44;5092136;28;20024;-49
2023/05/21 03:43:01;;;;;;;11.07;9.00;;;;;;;15.57;74.32;98188.97;5090526;28;20059;-49
2023/05/21 03:45:27;;;;;;;16.23;9.18;;;;;;;15.68;74.24;98184.63;5090344;28;20047;-49
2023/05/21 03:47:52;;;;;;;17.63;8.00;;;;;;;15.90;74.04;98184.66;5090440;28;20397;-49
2023/05/21 03:50:18;;;;;;;15.23;8.55;;;;;;;16.01;72.75;98189.00;5095152;28;20020;-49
2023/05/21 03:52:44;;;;;;;19.20;9.55;;;;;;;16.00;72.36;98191.91;5094599;28;20099;-49
2023/05/21 03:55:09;;;;;;;19.05;9.02;;;;;;;15.84;72.36;98196.25;5096063;28;20016;-49
2023/05/21 03:57:36;;;;;;;20.30;9.25;;;;;;;15.84;72.69;98201.53;5095827;28;20065;-49
2023/05/21 04:00:03;;;;;;;13.10;9.65;;;;;;;15.76;72.77;98205.41;5095714;28;20073;-48
2023/05/21 04:02:28;;;;;;;13.30;9.85;;;;;;;15.55;73.34;98206.94;5095827;28;20024;-49
2023/05/21 04:04:54;;;;;;;12.68;7.85;;;;;;;15.59;74.43;98202.75;5094430;28;20592;-49
2023/05/21 04:07:21;;;;;;;15.60;8.30;;;;;;;15.84;73.87;98201.53;5094256;28;20028;-49
2023/05/21 04:09:47;;;;;;;11.57;8.50;;;;;;;16.01;72.38;98204.88;5095576;28;20430;-49
2023/05/21 04:12:12;;;;;;;11.95;8.15;;;;;;;16.08;71.73;98202.06;5094175;28;20299;-49
2023/05/21 04:14:38;;;;;;;8.77;7.90;;;;;;;16.06;71.72;98204.16;5094189;28;20441;-49
2023/05/21 04:17:04;;;;;;;14.45;8.27;;;;;;;16.02;71.81;98210.97;5095407;28;20485;-49
2023/05/21 04:19:33;;;;;;;14.73;9.00;;;;;;;16.05;71.82;98206.00;5094082;28;20024;-49
2023/05/21 04:21:59;;;;;;;14.82;8.50;;;;;;;16.00;71.66;98202.47;5094034;28;20395;-49
2023/05/21 04:24:24;;;;;;;13.30;8.70;;;;;;;16.01;71.77;98202.25;5093977;28;20035;-49
2023/05/21 04:26:50;;;;;;;11.50;8.55;;;;;;;16.02;71.68;98205.69;5094234;28;20020;-49
2023/05/21 04:29:16;;;;;;;13.55;8.20;;;;;;;16.10;71.48;98213.22;5093840;28;20379;-49
2023/05/21 04:31:43;;;;;;;15.80;9.95;;;;;;;15.97;71.56;98209.06;5095166;28;20024;-49
2023/05/21 04:34:08;;;;;;;16.48;10.00;;;;;;;15.81;71.80;98213.38;5095133;28;20024;-49
2023/05/21 04:36:34;;;;;;;17.70;10.02;;;;;;;15.65;72.85;98214.22;5095072;28;20383;-49
2023/05/21 04:39:01;;;;;;;10.60;9.07;;;;;;;15.56;73.41;98219.91;5095029;28;20486;-49
2023/05/21 04:41:27;;;;;;;13.43;9.45;;;;;;;15.64;73.79;98218.72;5094993;28;20046;-49
2023/05/21 04:43:53;;;;;;;13.77;9.43;;;;;;;15.70;73.67;98215.09;5094773;28;20048;-49
2023/05/21 04:46:24;;;;;;;12.65;8.93;;;;;;;15.77;73.39;98210.44;5093958;28;20027;-49
2023/05/21 04:48:54;;;;;;;179.57;87.07;;;;;;;16.05;73.23;98221.88;5093876;28;20020;-49
2023/05/21 04:51:21;;;;;;;124.47;39.45;;;;;;;16.36;72.62;98224.88;5094756;28;20027;-49
2023/05/21 04:53:48;;;;;;;24.67;10.95;;;;;;;16.54;71.59;98216.59;5093430;28;20054;-49
2023/05/21 04:56:18;;;;;;;19.08;8.75;;;;;;;16.72;71.45;98219.91;5094720;28;20031;-49
2023/05/21 04:58:46;;;;;;;16.42;9.23;;;;;;;16.87;70.22;98217.41;5093350;28;20377;-49
2023/05/21 05:01:12;;;;;;;12.85;8.02;;;;;;;16.85;69.33;98216.88;5092426;28;20020;-49
2023/05/21 05:03:38;;;;;;;12.43;8.90;;;;;;;16.47;69.23;98229.22;5093260;28;20109;-49
2023/05/21 05:06:04;;;;;;;15.20;9.35;;;;;;;16.09;70.42;98225.63;5093226;28;20027;-49
2023/05/21 05:08:30;;;;;;;11.63;9.15;;;;;;;15.90;71.58;98222.50;5093240;28;20375;-49
2023/05/21 05:10:56;;;;;;;12.93;8.55;;;;;;;16.04;71.99;98217.66;5094457;28;20027;-49
2023/05/21 05:13:21;;;;;;;28.08;11.13;;;;;;;16.26;72.05;98214.16;5094316;28;20401;-49
2023/05/21 05:15:47;;;;;;;10.68;8.70;;;;;;;16.44;70.98;98219.13;5093029;28;20035;-49
2023/05/21 05:18:12;;;;;;;11.00;9.43;;;;;;;16.37;70.90;98221.16;5092985;28;20031;-49
2023/05/21 05:20:38;;;;;;;13.90;9.90;;;;;;;16.22;71.13;98221.00;5092947;28;20032;-49
2023/05/21 05:23:04;;;;;;;14.40;8.82;;;;;;;16.28;71.63;98212.88;5094243;28;20020;-49
2023/05/21 05:25:30;;;;;;;10.45;8.68;;;;;;;16.43;71.50;98211.44;5092801;28;20028;-49
2023/05/21 05:27:55;;;;;;;16.35;8.20;;;;;;;16.62;71.17;98225.13;5094061;28;20020;-49
2023/05/21 05:30:21;;;;;;;13.23;8.68;;;;;;;16.74;70.41;98223.91;5092713;28;20032;-49
2023/05/21 05:32:47;;;;;;;12.70;8.15;;;;;;;16.97;70.55;98222.81;5092750;28;20020;-49
2023/05/21 05:35:12;;;;;;;10.45;8.57;;;;;;;17.15;69.60;98218.97;5092656;28;20028;-49
2023/05/21 05:37:38;;;;;;;10.18;8.57;;;;;;;17.15;69.09;98221.63;5092613;28;20452;-49
2023/05/21 05:40:04;;;;;;;14.18;8.73;;;;;;;17.16;69.11;98220.56;5092572;28;20102;-49
2023/05/21 05:42:30;;;;;;;11.40;8.35;;;;;;;17.15;68.61;98228.78;5092622;28;20028;-49
2023/05/21 05:44:56;;;;;;;16.88;8.48;;;;;;;17.22;68.84;98223.25;5092385;28;20580;-49
2023/05/21 05:47:21;;;;;;;17.45;8.68;;;;;;;17.43;68.20;98221.53;5093698;28;20073;-49
2023/05/21 05:49:47;;;;;;;13.88;8.50;;;;;;;17.53;68.24;98224.25;5093713;28;20053;-49
2023/05/21 05:52:13;;;;;;;16.65;8.45;;;;;;;17.70;67.77;98221.41;5093586;28;20027;-48
2023/05/21 05:54:39;;;;;;;10.05;8.38;;;;;;;17.73;66.61;98219.03;5092267;28;20032;-49
2023/05/21 05:57:05;;;;;;;16.65;8.88;;;;;;;17.55;66.98;98224.78;5092238;28;20024;-49
2023/05/21 05:59:32;;;;;;;11.18;8.45;;;;;;;17.60;67.53;98222.16;5092247;28;20020;-49
2023/05/21 06:01:58;;;;;;;13.02;8.57;;;;;;;17.70;67.66;98219.53;5092196;28;20055;-49
2023/05/21 06:04:24;;;;;;;11.30;8.32;;;;;;;17.78;67.08;98221.72;5092078;28;20493;-49
2023/05/21 06:06:51;;;;;;;14.23;8.48;;;;;;;17.84;66.94;98216.47;5092026;28;20027;-48
2023/05/21 06:09:17;;;;;;;13.70;8.10;;;;;;;17.97;66.78;98218.66;5092172;28;20027;-49
2023/05/21 06:11:42;;;;;;;14.95;8.35;;;;;;;18.11;66.12;98219.75;5091964;28;20032;-49
2023/05/21 06:14:08;;;;;;;13.90;8.38;;;;;;;18.08;66.16;98214.16;5093166;28;20095;-49
2023/05/21 06:16:34;;;;;;;13.38;8.57;;;;;;;18.14;65.82;98219.22;5091857;28;20024;-49
2023/05/21 06:18:59;;;;;;;14.15;8.65;;;;;;;18.09;65.79;98223.72;5093057;28;20091;-49
2023/05/21 06:21:25;;;;;;;13.13;8.15;;;;;;;18.16;66.04;98237.56;5091742;28;20020;-49
2023/05/21 06:23:51;;;;;;;12.25;8.85;;;;;;;18.24;65.69;98238.94;5091708;28;20624;-49
2023/05/21 06:26:18;;;;;;;12.30;8.80;;;;;;;18.07;65.46;98239.94;5091632;28;20024;-49
2023/05/21 06:28:44;;;;;;;12.55;9.27;;;;;;;17.94;66.17;98238.53;5092742;28;20085;-49
2023/05/21 06:31:10;;;;;;;12.07;8.38;;;;;;;18.02;66.48;98231.94;5091790;28;20039;-49
2023/05/21 06:33:36;;;;;;;13.20;8.30;;;;;;;18.20;66.21;98235.19;5091568;28;20028;-49
2023/05/21 06:36:02;;;;;;;12.07;8.45;;;;;;;18.43;65.72;98248.03;5091470;28;20504;-49
2023/05/21 06:38:27;;;;;;;12.30;7.90;;;;;;;18.45;64.87;98239.75;5091457;28;20028;-49
2023/05/21 06:40:54;;;;;;;12.93;8.60;;;;;;;18.47;64.71;98238.47;5091419;28;20036;-49
2023/05/21 06:43:19;;;;;;;9.98;8.95;;;;;;;18.55;64.59;98231.81;5091353;28;20023;-49
2023/05/21 06:45:45;;;;;;;13.32;9.18;;;;;;;18.59;64.69;98242.72;5092395;28;20139;-49
2023/05/21 06:48:11;;;;;;;8.68;7.78;;;;;;;18.59;64.64;98240.84;5091219;28;20034;-49
2023/05/21 06:50:37;;;;;;;9.73;7.93;;;;;;;18.66;64.47;98235.28;5092439;28;20024;-49
2023/05/21 06:53:02;;;;;;;11.57;8.25;;;;;;;18.84;64.55;98234.81;5092453;28;20034;-49
2023/05/21 06:55:28;;;;;;;14.63;8.85;;;;;;;19.09;64.15;98239.31;5092470;28;20030;-49
2023/05/21 06:57:54;;;;;;;11.15;8.10;;;;;;;19.29;63.38;98243.81;5092457;28;20496;-49
2023/05/21 07:00:20;;;;;;;9.63;7.55;;;;;;;19.53;62.68;98244.06;5092305;28;20447;-49
2023/05/21 07:02:45;;;;;;;12.55;8.40;;;;;;;19.70;61.93;98240.31;5092353;28;20020;-49
2023/05/21 07:05:11;;;;;;;10.27;8.45;;;;;;;19.71;61.65;98248.03;5090961;28;20036;-49
2023/05/21 07:07:37;;;;;;;8.68;7.82;;;;;;;19.77;61.44;98250.69;5090974;28;20088;-48
2023/05/21 07:10:03;;;;;;;14.55;8.13;;;;;;;19.83;61.08;98250.41;5092390;28;20036;-46
2023/05/21 07:12:28;;;;;;;12.57;7.72;;;;;;;19.79;60.59;98245.91;5091131;28;20047;-46
2023/05/21 07:14:54;;;;;;;12.80;8.57;;;;;;;19.77;60.36;98248.03;5092229;28;20024;-46
2023/05/21 07:17:20;;;;;;;16.83;7.80;;;;;;;19.77;60.78;98253.38;5090756;28;20032;-46
2023/05/21 07:19:45;;;;;;;9.48;8.15;;;;;;;19.86;60.48;98255.19;5090763;28;20039;-46
2023/05/21 07:22:11;;;;;;;12.52;7.55;;;;;;;19.97;60.28;98253.28;5090780;28;20121;-46
2023/05/21 07:24:37;;;;;;;16.15;7.78;;;;;;;20.04;59.88;98253.00;5091834;28;20028;-47
2023/05/21 07:27:03;;;;;;;18.20;7.95;;;;;;;20.03;59.59;98254.06;5090723;28;20511;-46
2023/05/21 07:29:34;;;;;;;14.48;7.80;;;;;;;19.89;59.55;98251.19;5091977;28;20020;-46
2023/05/21 07:32:01;;;;;;;16.40;7.68;;;;;;;19.80;59.92;98242.16;5090595;28;20024;-46
2023/05/21 07:34:26;;;;;;;9.85;7.88;;;;;;;19.86;60.28;98244.53;5073761;28;20034;-46
2023/05/21 07:36:52;;;;;;;10.77;7.32;;;;;;;20.02;60.24;98237.31;5091826;28;20020;-46
2023/05/21 07:39:18;;;;;;;8.15;7.32;;;;;;;20.02;59.93;98236.47;5091877;28;20051;-46
2023/05/21 07:41:43;;;;;;;10.48;8.13;;;;;;;20.07;59.88;98242.59;5091859;28;20099;-46
2023/05/21 07:44:09;;;;;;;12.25;8.70;;;;;;;20.11;59.65;98242.84;5089725;28;20052;-46
2023/05/21 07:46:35;;;;;;;10.70;8.23;;;;;;;20.08;59.90;98241.53;5092093;28;20028;-46
2023/05/21 07:49:01;;;;;;;10.35;7.63;;;;;;;20.21;59.98;98239.34;5091708;28;20024;-46
2023/05/21 07:51:27;;;;;;;10.90;7.93;;;;;;;20.43;59.73;98245.09;5090410;28;20038;-46
2023/05/21 07:53:53;;;;;;;12.10;7.82;;;;;;;20.51;58.94;98239.16;5090417;28;20517;-46
2023/05/21 07:56:19;;;;;;;11.95;7.57;;;;;;;20.39;59.36;98240.59;5091753;28;20027;-46
2023/05/21 07:58:46;;;;;;;11.30;8.15;;;;;;;20.46;59.26;98247.19;5091574;28;20063;-46
2023/05/21 08:01:11;;;;;;;9.18;7.85;;;;;;;20.68;58.64;98246.81;5090340;28;20028;-46
2023/05/21 08:03:37;;;;;;;12.77;7.57;;;;;;;20.67;58.18;98245.22;5090387;28;20458;-46
2023/05/21 08:06:03;;;;;;;13.40;7.70;;;;;;;20.70;58.09;98252.66;5090256;28;20043;-46
2023/05/21 08:08:29;;;;;;;11.15;8.25;;;;;;;20.80;57.99;98246.47;5091517;28;20073;-47
2023/05/21 08:10:55;;;;;;;10.50;7.60;;;;;;;20.83;57.55;98245.13;5091516;28;20051;-46
2023/05/21 08:13:20;;;;;;;15.85;8.52;;;;;;;21.00;57.80;98242.06;5090170;28;20039;-47
2023/05/21 08:15:47;;;;;;;15.02;7.68;;;;;;;21.32;56.77;98244.97;5091502;28;20028;-46
2023/05/21 08:18:13;;;;;;;12.25;7.95;;;;;;;21.48;55.99;98253.66;5090135;28;20059;-46
2023/05/21 08:20:40;;;;;;;10.93;7.53;;;;;;;21.48;56.01;98252.88;5090181;28;20102;-44
2023/05/21 08:23:06;;;;;;;10.07;7.95;;;;;;;21.64;55.39;98246.28;5091412;28;20103;-44
2023/05/21 08:25:31;;;;;;;10.27;7.35;;;;;;;21.78;54.93;98253.63;5091479;28;20115;-45
2023/05/21 08:27:57;;;;;;;11.30;7.25;;;;;;;21.99;54.40;98251.50;5090101;28;20032;-45
2023/05/21 08:30:23;;;;;;;9.82;7.85;;;;;;;22.06;53.75;98255.44;5090074;28;20036;-45
2023/05/21 08:32:49;;;;;;;8.18;7.18;;;;;;;22.29;53.58;98247.69;5090082;28;20489;-45
2023/05/21 08:35:15;;;;;;;13.30;8.15;;;;;;;22.49;53.06;98254.63;5090008;28;20539;-45
2023/05/21 08:37:41;;;;;;;12.68;7.28;;;;;;;22.66;52.87;98254.16;5093759;28;20034;-45
2023/05/21 08:40:08;;;;;;;16.33;7.32;;;;;;;22.70;52.45;98258.63;5093728;28;20024;-45
2023/05/21 08:42:46;;;;;;;8.40;6.95;;;;;;;22.90;52.45;98252.16;5094947;28;20031;-45
2023/05/21 08:45:13;;;;;;;11.23;7.45;;;;;;;23.10;51.99;98255.59;5094762;28;20509;-45
2023/05/21 08:47:43;;;;;;;9.52;7.80;;;;;;;23.37;51.46;98262.13;5093604;28;20028;-45
2023/05/21 08:50:15;;;;;;;12.18;7.55;;;;;;;23.75;49.88;98251.28;5093540;28;20036;-45
2023/05/21 08:52:41;;;;;;;9.73;8.60;;;;;;;23.95;49.14;98252.78;5094887;28;20430;-45
2023/05/21 08:55:08;;;;;;;20.83;13.85;;;;;;;23.94;49.05;98254.66;5093441;28;20058;-45
2023/05/21 08:57:34;;;;;;;26.40;23.67;;;;;;;24.08;48.42;98260.81;5094993;28;20035;-45
2023/05/21 09:00:00;;;;;;;21.05;14.30;;;;;;;23.96;48.29;98254.38;5094603;28;20024;-44
2023/05/21 09:02:29;;;;;;;12.35;9.05;;;;;;;24.21;47.71;98258.44;5094588;28;20134;-45
2023/05/21 09:04:56;;;;;;;11.55;7.22;;;;;;;24.56;46.60;98251.50;5094478;28;20016;-44
2023/05/21 09:07:29;;;;;;;8.32;7.45;;;;;;;25.03;44.54;98264.63;5093463;28;20024;-44
2023/05/21 09:09:57;;;;;;;9.73;7.63;;;;;;;25.44;43.76;98255.59;5094600;28;20036;-45
2023/05/21 09:12:27;;;;;;;9.07;7.45;;;;;;;25.77;42.80;98255.25;5094359;28;20505;-45
2023/05/21 09:14:53;;;;;;;12.70;7.88;;;;;;;26.00;42.37;98251.41;5094590;28;20393;-45
2023/05/21 09:17:19;;;;;;;12.32;7.20;;;;;;;26.46;41.83;98247.38;5094617;28;20024;-45
2023/05/21 09:20:11;;;;;;;11.35;6.97;;;;;;;27.29;40.46;98254.47;5093259;28;20020;-45
2023/05/21 09:22:41;;;;;;;14.07;7.75;;;;;;;28.13;38.69;98234.28;5094206;28;20024;-45
2023/05/21 09:25:08;;;;;;;12.48;8.25;;;;;;;28.59;37.61;98235.25;5092917;28;20304;-45
2023/05/21 09:27:34;;;;;;;12.07;10.50;;;;;;;28.95;36.79;98240.00;5094400;28;20028;-45
2023/05/21 09:30:02;;;;;;;10.18;7.97;;;;;;;29.19;36.39;98242.03;5092917;28;20024;-45
2023/05/21 09:32:28;;;;;;;9.55;6.88;;;;;;;29.31;36.06;98248.59;5092732;28;20024;-45
2023/05/21 09:34:53;;;;;;;10.80;6.93;;;;;;;29.69;35.69;98248.28;5092689;28;20027;-45
2023/05/21 09:37:21;;;;;;;12.23;7.35;;;;;;;30.42;34.54;98254.81;5093955;28;20024;-46
2023/05/21 09:39:47;;;;;;;9.38;6.72;;;;;;;31.46;32.98;98252.25;5093868;28;20050;-46
2023/05/21 09:42:13;;;;;;;12.40;6.97;;;;;;;32.51;31.25;98241.81;5092494;28;20028;-45
2023/05/21 09:44:44;;;;;;;13.38;7.13;;;;;;;33.31;29.86;98240.25;5092305;28;20052;-45
2023/05/21 09:47:10;;;;;;;11.43;6.65;;;;;;;33.82;28.95;98245.38;5092019;28;20425;-45
2023/05/21 09:49:36;;;;;;;10.82;6.50;;;;;;;33.77;28.38;98247.63;5092587;28;20053;-46
2023/05/21 09:52:02;;;;;;;12.20;7.07;;;;;;;33.23;29.00;98252.94;5092268;28;20024;-46
2023/05/21 09:54:33;;;;;;;10.73;7.60;;;;;;;31.78;30.46;98260.38;5093551;28;20031;-45
2023/05/21 09:57:02;;;;;;;8.88;7.45;;;;;;;30.69;31.85;98268.72;5092224;28;20077;-45
2023/05/21 09:59:38;;;;;;;14.63;6.90;;;;;;;30.28;32.29;98263.25;5092167;28;20094;-45
2023/05/21 10:02:16;;;;;;;13.15;7.25;;;;;;;30.55;31.98;98259.06;5092387;28;20039;-45
2023/05/21 10:04:44;;;;;;;8.63;7.80;;;;;;;30.46;31.88;98264.63;5092167;28;20107;-46
2023/05/21 10:07:10;;;;;;;16.75;10.45;;;;;;;30.32;32.51;98263.41;5093360;28;20509;-46
2023/05/21 10:09:36;;;;;;;12.88;10.23;;;;;;;30.98;31.64;98260.28;5075072;28;20028;-45
2023/05/21 10:12:02;;;;;;;12.30;7.85;;;;;;;31.59;30.66;98263.78;5091936;28;20024;-46
2023/05/21 10:14:31;;;;;;;13.63;7.93;;;;;;;32.12;30.64;98256.13;5093223;28;20024;-46
2023/05/21 10:16:59;;;;;;;8.98;6.57;;;;;;;32.46;29.74;98253.75;5093171;28;20020;-46
2023/05/21 10:19:25;;;;;;;13.80;7.60;;;;;;;33.00;28.90;98252.91;5091851;28;20478;-45
2023/05/21 10:21:52;;;;;;;7.38;6.68;;;;;;;33.46;28.11;98243.22;5091788;28;20093;-45
2023/05/21 10:24:19;;;;;;;10.52;6.88;;;;;;;33.98;27.57;98245.22;5093055;28;20024;-45
2023/05/21 10:26:45;;;;;;;7.95;7.15;;;;;;;34.72;26.69;98256.72;5091640;28;20048;-46
2023/05/21 10:29:13;;;;;;;9.15;6.78;;;;;;;35.44;25.75;98250.06;5091846;28;20024;-46
2023/05/21 10:31:42;;;;;;;8.90;7.10;;;;;;;35.45;25.49;98259.03;5092899;28;20024;-46
2023/05/21 10:34:10;;;;;;;9.10;7.32;;;;;;;35.01;26.11;98255.91;5093483;28;20039;-46
2023/05/21 10:36:37;;;;;;;10.20;7.75;;;;;;;35.17;26.15;98252.16;5092116;28;20565;-46
2023/05/21 10:39:04;;;;;;;8.70;6.60;;;;;;;35.64;25.70;98241.63;5092775;28;20020;-45
2023/05/21 10:41:41;;;;;;;10.25;6.70;;;;;;;36.45;24.64;98248.81;5092754;28;20078;-46
2023/05/21 10:44:54;;;;;;;7.35;6.57;;;;;;;37.38;24.28;98240.06;5092495;28;20150;-46
2023/05/21 10:47:37;;;;;;;10.73;6.85;;;;;;;38.56;22.75;98248.13;5086956;28;20036;-48
2023/05/21 10:50:40;;;;;;;8.20;7.13;;;;;;;39.00;22.01;98237.72;5092547;28;20028;-48
2023/05/21 10:53:44;;;;;;;12.02;7.13;;;;;;;38.50;22.07;98235.19;5092492;28;20494;-48
2023/05/21 10:56:27;;;;;;;8.73;5.97;;;;;;;37.48;22.80;98236.56;5091201;28;20060;-49
2023/05/21 10:59:05;;;;;;;5.97;5.37;;;;;;;37.74;22.26;98231.88;5090475;28;20031;-49
2023/05/21 11:01:36;;;;;;;7.57;6.10;;;;;;;37.89;21.96;98236.16;5092343;28;20042;-49
2023/05/21 11:04:04;;;;;;;14.35;7.07;;;;;;;37.87;22.27;98237.72;5091314;28;20028;-48
2023/05/21 11:06:30;;;;;;;15.35;5.82;;;;;;;38.06;21.86;98233.78;5092521;28;20035;-49
2023/05/21 11:09:00;;;;;;;13.20;6.32;;;;;;;38.30;21.50;98232.91;5090834;28;20032;-48
2023/05/21 11:11:43;;;;;;;7.95;5.68;;;;;;;38.16;21.33;98225.53;5090912;28;20028;-48
2023/05/21 11:14:30;;;;;;;8.03;6.73;;;;;;;37.28;22.09;98227.94;5090937;28;20577;-49
2023/05/21 11:16:57;;;;;;;6.80;6.07;;;;;;;37.41;22.46;98228.34;5090809;28;20027;-48
2023/05/21 11:19:36;;;;;;;7.35;5.80;;;;;;;37.07;22.78;98231.44;5092073;28;20024;-49
2023/05/21 11:22:07;;;;;;;5.93;5.38;;;;;;;36.82;22.37;98233.31;5090761;28;20431;-49
2023/05/21 11:24:37;;;;;;;9.23;5.53;;;;;;;36.68;23.10;98229.38;5092091;28;20027;-49
2023/05/21 11:27:04;;;;;;;8.55;5.53;;;;;;;36.41;22.99;98223.41;5073905;28;20051;-49
2023/05/21 11:29:43;;;;;;;8.60;5.28;;;;;;;35.71;23.95;98222.63;5091815;28;20024;-46